Time;durP1;ratioP1;P1;durP2;ratioP2;P2;SDS_P1;SDS_P2;PMS_P1;PMS_P2;Temp;Humidity;BMP_temperature;BMP_pressure;BME280_temperature;BME280_humidity;BME280_pressure;Samples;Min_cycle;Max_cycle;Signal;HPM_P1;HPM_P2
2021/07/28 00:01:18;;;;;;;9.87;8.87;;;18.30;99.90;;;;;;5047120;28;20530;-73
2021/07/28 00:03:44;;;;;;;10.40;9.40;;;18.40;99.90;;;;;;5048485;28;20435;-73
2021/07/28 00:06:20;;;;;;;10.40;9.10;;;18.60;99.90;;;;;;5049622;28;20862;-73
2021/07/28 00:08:46;;;;;;;10.50;9.23;;;18.40;99.90;;;;;;5046079;28;20228;-73
2021/07/28 00:11:12;;;;;;;9.00;8.20;;;18.20;99.90;;;;;;5045114;28;20487;-74
2021/07/28 00:13:38;;;;;;;10.13;8.67;;;18.30;99.90;;;;;;5047069;28;20242;-75
2021/07/28 00:16:09;;;;;;;10.77;9.67;;;18.30;99.90;;;;;;5049585;28;20436;-74
2021/07/28 00:18:52;;;;;;;10.73;9.73;;;18.40;99.90;;;;;;5049633;28;20184;-74
2021/07/28 00:24:02;;;;;;;9.73;8.73;;;18.40;99.90;;;;;;5044563;28;21184;-73
2021/07/28 00:26:28;;;;;;;10.03;9.03;;;18.50;99.90;;;;;;5048720;28;20801;-75
2021/07/28 00:28:53;;;;;;;9.80;8.77;;;18.30;99.90;;;;;;5047273;28;20245;-72
2021/07/28 00:31:19;;;;;;;9.57;8.67;;;18.10;99.90;;;;;;5044809;28;21196;-76
2021/07/28 00:33:44;;;;;;;8.93;8.03;;;18.20;99.90;;;;;;5044810;28;20188;-73
2021/07/28 00:36:10;;;;;;;10.70;9.00;;;18.50;99.90;;;;;;5046302;28;20927;-74
2021/07/28 00:38:35;;;;;;;9.50;8.60;;;18.20;99.90;;;;;;5046425;28;20186;-74
2021/07/28 00:41:02;;;;;;;10.37;8.87;;;18.20;99.90;;;;;;5048622;28;20199;-73
2021/07/28 00:43:29;;;;;;;9.97;8.80;;;18.20;99.90;;;;;;5049733;28;20253;-74
2021/07/28 00:45:55;;;;;;;11.93;9.63;;;18.40;99.90;;;;;;5044773;28;20843;-73
2021/07/28 00:48:20;;;;;;;9.80;8.90;;;18.20;99.90;;;;;;5045099;28;20517;-74
2021/07/28 00:50:46;;;;;;;10.03;8.57;;;18.10;99.90;;;;;;5043773;28;20569;-74
2021/07/28 00:53:18;;;;;;;10.30;9.40;;;18.20;99.90;;;;;;5044709;28;20175;-73
2021/07/28 00:55:48;;;;;;;9.53;8.63;;;17.80;99.90;;;;;;5044215;28;20202;-74
2021/07/28 00:58:15;;;;;;;9.93;9.03;;;18.20;99.90;;;;;;5046272;28;20435;-76
2021/07/28 01:00:41;;;;;;;8.80;7.80;;;17.90;99.90;;;;;;5042315;28;20433;-73
2021/07/28 01:03:07;;;;;;;8.67;7.47;;;18.10;99.90;;;;;;5045629;28;20439;-72
2021/07/28 01:05:33;;;;;;;8.70;7.77;;;17.70;99.90;;;;;;5049299;28;20799;-72
2021/07/28 01:07:58;;;;;;;9.30;8.40;;;17.90;99.90;;;;;;5045961;28;20532;-73
2021/07/28 01:10:24;;;;;;;9.97;8.93;;;17.90;99.90;;;;;;5032810;28;20246;-74
2021/07/28 01:12:54;;;;;;;9.03;8.13;;;18.00;99.90;;;;;;5028020;28;20279;-73
2021/07/28 01:15:32;;;;;;;9.10;8.30;;;18.00;99.90;;;;;;5030704;28;20648;-72
2021/07/28 01:18:01;;;;;;;9.33;7.93;;;17.60;99.90;;;;;;5046298;28;20445;-74
2021/07/28 01:20:53;;;;;;;10.00;9.00;;;17.70;99.90;;;;;;5048157;28;20454;-74
2021/07/28 01:23:20;;;;;;;9.27;8.30;;;17.80;99.90;;;;;;5041433;28;20448;-72
2021/07/28 01:25:47;;;;;;;9.67;8.70;;;17.60;99.90;;;;;;5044185;28;20432;-73
2021/07/28 01:28:13;;;;;;;10.60;9.20;;;17.60;99.90;;;;;;5045545;28;20463;-72
2021/07/28 01:30:39;;;;;;;8.40;7.60;;;17.80;99.90;;;;;;5049643;28;20586;-73
2021/07/28 01:33:05;;;;;;;9.27;8.37;;;17.80;99.90;;;;;;5048666;28;20454;-74
2021/07/28 01:35:34;;;;;;;9.90;8.20;;;17.90;99.90;;;;;;5050846;28;21043;-74
2021/07/28 01:38:00;;;;;;;9.07;8.27;;;17.60;99.90;;;;;;5045928;28;20433;-74
2021/07/28 01:40:25;;;;;;;10.27;9.17;;;17.80;99.90;;;;;;5046117;28;20423;-73
2021/07/28 01:42:51;;;;;;;9.47;8.50;;;17.90;99.90;;;;;;5045444;28;20210;-74
2021/07/28 01:45:17;;;;;;;10.43;8.60;;;17.60;99.90;;;;;;5047791;28;20184;-73
2021/07/28 01:47:43;;;;;;;10.20;9.13;;;17.60;99.90;;;;;;5049052;28;20219;-73
2021/07/28 01:50:10;;;;;;;9.67;8.77;;;17.70;99.90;;;;;;5048693;28;20574;-73
2021/07/28 01:52:37;;;;;;;10.83;8.87;;;17.80;99.90;;;;;;5046411;28;20768;-73
2021/07/28 01:55:05;;;;;;;13.37;9.53;;;17.70;99.90;;;;;;5045011;28;20470;-74
2021/07/28 01:57:31;;;;;;;10.10;9.10;;;17.80;99.90;;;;;;5045155;28;20477;-73
2021/07/28 02:00:03;;;;;;;10.93;9.13;;;17.80;99.90;;;;;;5026335;28;20438;-73
2021/07/28 02:02:31;;;;;;;9.37;8.37;;;17.60;99.90;;;;;;5026395;28;20641;-73
2021/07/28 02:05:01;;;;;;;10.27;9.27;;;17.40;99.90;;;;;;5039104;28;20440;-73
2021/07/28 02:07:27;;;;;;;9.60;8.70;;;17.80;99.90;;;;;;5049812;28;20431;-73
2021/07/28 02:09:53;;;;;;;10.13;9.10;;;17.30;99.90;;;;;;5047933;28;20478;-74
2021/07/28 02:12:19;;;;;;;9.43;8.20;;;17.60;99.90;;;;;;5046522;28;20419;-73
2021/07/28 02:14:44;;;;;;;8.90;8.03;;;17.20;99.90;;;;;;5045358;28;20377;-73
2021/07/28 02:17:10;;;;;;;9.33;8.53;;;17.70;99.90;;;;;;5045186;28;20545;-72
2021/07/28 02:19:35;;;;;;;9.40;8.50;;;17.70;99.90;;;;;;5039955;28;20252;-73
2021/07/28 02:22:01;;;;;;;9.70;8.77;;;17.40;99.90;;;;;;5039273;28;20631;-73
2021/07/28 02:24:26;;;;;;;8.80;7.90;;;17.40;99.90;;;;;;5047427;28;20171;-73
2021/07/28 02:26:52;;;;;;;8.40;7.60;;;17.10;99.90;;;;;;5047528;28;20175;-75
2021/07/28 02:29:17;;;;;;;8.80;7.90;;;17.30;99.90;;;;;;5046808;28;20220;-73
2021/07/28 02:31:43;;;;;;;8.43;7.63;;;17.20;99.90;;;;;;5025733;28;20652;-75
2021/07/28 02:34:08;;;;;;;8.80;7.90;;;17.50;99.90;;;;;;5025438;28;20186;-73
2021/07/28 02:36:34;;;;;;;8.20;7.50;;;17.40;99.90;;;;;;5026884;28;20176;-73
2021/07/28 02:38:59;;;;;;;9.03;8.20;;;17.10;99.90;;;;;;5024679;28;20189;-73
2021/07/28 02:41:25;;;;;;;8.43;7.60;;;17.30;99.90;;;;;;5024922;28;20175;-74
2021/07/28 02:43:50;;;;;;;8.10;7.30;;;17.00;99.90;;;;;;5025485;28;20195;-72
2021/07/28 02:46:16;;;;;;;9.00;8.20;;;17.00;99.90;;;;;;5026051;28;20191;-75
2021/07/28 02:48:41;;;;;;;8.80;8.00;;;17.00;99.90;;;;;;5027387;28;20196;-73
2021/07/28 02:51:07;;;;;;;8.67;7.80;;;17.00;99.90;;;;;;5033168;28;20221;-73
2021/07/28 02:53:32;;;;;;;10.90;7.87;;;17.00;99.90;;;;;;5031932;28;20330;-74
2021/07/28 02:55:58;;;;;;;9.13;8.23;;;16.70;99.90;;;;;;5029424;28;20252;-73
2021/07/28 02:58:23;;;;;;;8.60;7.80;;;17.00;99.90;;;;;;5020855;28;21538;-74
2021/07/28 03:00:49;;;;;;;8.80;7.57;;;16.90;99.90;;;;;;5009817;28;20180;-73
2021/07/28 03:03:14;;;;;;;8.27;7.53;;;17.00;99.90;;;;;;5009167;28;20194;-73
2021/07/28 03:05:41;;;;;;;8.93;8.07;;;17.00;99.90;;;;;;5011040;28;20192;-73
2021/07/28 03:08:07;;;;;;;8.80;7.90;;;16.90;99.90;;;;;;5019588;28;20199;-73
2021/07/28 03:10:32;;;;;;;11.07;9.87;;;17.10;99.90;;;;;;5030501;28;20477;-75
2021/07/28 03:12:58;;;;;;;9.30;8.33;;;16.70;99.90;;;;;;5029736;28;20296;-73
2021/07/28 03:15:23;;;;;;;10.00;9.00;;;16.60;99.90;;;;;;5028470;28;20187;-75
2021/07/28 03:17:49;;;;;;;9.87;8.80;;;17.00;99.90;;;;;;5029096;28;20646;-72
2021/07/28 03:20:14;;;;;;;9.27;8.43;;;16.80;99.90;;;;;;5030688;28;20187;-74
2021/07/28 03:22:40;;;;;;;8.97;8.13;;;16.90;99.90;;;;;;5030092;28;20200;-73
2021/07/28 03:25:06;;;;;;;9.80;8.70;;;16.80;99.90;;;;;;5032502;28;20218;-73
2021/07/28 03:27:32;;;;;;;9.70;8.30;;;17.00;99.90;;;;;;5033279;28;20187;-74
2021/07/28 03:29:58;;;;;;;10.53;8.90;;;16.80;99.90;;;;;;5033866;28;20241;-74
2021/07/28 03:32:23;;;;;;;10.63;8.73;;;17.00;99.90;;;;;;5048032;28;21164;-74
2021/07/28 03:34:49;;;;;;;9.50;8.60;;;16.90;99.90;;;;;;5049087;28;20196;-73
2021/07/28 03:37:14;;;;;;;9.17;8.27;;;17.10;99.90;;;;;;5052513;28;20188;-73
2021/07/28 03:39:41;;;;;;;9.60;8.20;;;16.90;99.90;;;;;;5051921;28;20186;-73
2021/07/28 03:42:07;;;;;;;9.00;8.10;;;17.00;99.90;;;;;;5048023;28;20213;-72
2021/07/28 03:44:33;;;;;;;8.17;7.43;;;16.90;99.90;;;;;;5049783;28;20780;-75
2021/07/28 03:46:59;;;;;;;9.93;8.93;;;16.90;99.90;;;;;;5048705;28;20237;-73
2021/07/28 03:49:25;;;;;;;8.27;7.30;;;17.10;99.90;;;;;;5047729;28;20523;-73
2021/07/28 03:51:50;;;;;;;8.43;7.43;;;16.90;99.90;;;;;;5050757;28;21084;-73
2021/07/28 03:54:15;;;;;;;9.27;8.33;;;16.90;99.90;;;;;;5051577;28;20190;-73
2021/07/28 03:56:41;;;;;;;10.77;9.30;;;16.80;99.90;;;;;;5050785;28;20183;-74
2021/07/28 03:59:07;;;;;;;10.00;8.87;;;16.90;99.90;;;;;;5020274;28;20186;-73
2021/07/28 04:01:32;;;;;;;10.47;8.83;;;16.90;99.90;;;;;;5049820;28;20179;-75
2021/07/28 04:03:58;;;;;;;9.90;8.70;;;16.90;99.90;;;;;;5047933;28;20564;-74
2021/07/28 04:06:23;;;;;;;9.37;8.30;;;17.00;99.90;;;;;;5047682;28;20218;-75
2021/07/28 04:08:49;;;;;;;9.67;8.77;;;17.00;99.90;;;;;;5046996;28;20193;-73
2021/07/28 04:11:14;;;;;;;10.80;9.60;;;17.30;99.90;;;;;;5048635;28;20837;-73
2021/07/28 04:13:40;;;;;;;10.43;8.93;;;16.90;99.90;;;;;;5050605;28;20190;-73
2021/07/28 04:16:05;;;;;;;9.60;8.60;;;16.90;99.90;;;;;;5051677;28;20201;-74
2021/07/28 04:18:31;;;;;;;9.43;8.10;;;17.10;99.90;;;;;;5048610;28;20249;-76
2021/07/28 04:20:57;;;;;;;9.17;7.77;;;17.10;99.90;;;;;;5046730;28;20184;-73
2021/07/28 04:23:22;;;;;;;9.00;7.90;;;16.90;99.90;;;;;;5046970;28;20861;-74
2021/07/28 04:25:48;;;;;;;10.10;8.60;;;16.90;99.90;;;;;;5047793;28;20178;-74
2021/07/28 04:28:14;;;;;;;7.90;7.00;;;17.10;99.90;;;;;;5048228;28;20571;-74
2021/07/28 04:30:39;;;;;;;8.10;7.30;;;16.90;99.90;;;;;;5048187;28;20274;-74
2021/07/28 04:33:04;;;;;;;8.20;7.40;;;17.00;99.90;;;;;;5051484;28;20190;-75
2021/07/28 04:35:30;;;;;;;9.00;7.73;;;17.00;99.90;;;;;;5051547;28;20238;-73
2021/07/28 04:37:55;;;;;;;7.67;6.60;;;17.10;99.90;;;;;;5049600;28;20316;-74
2021/07/28 04:40:21;;;;;;;7.90;7.10;;;17.00;99.90;;;;;;5047926;28;20203;-76
2021/07/28 04:42:47;;;;;;;8.37;7.57;;;17.00;99.90;;;;;;5050744;28;20188;-74
2021/07/28 04:45:13;;;;;;;8.27;7.43;;;17.30;99.90;;;;;;5051562;28;20436;-74
2021/07/28 04:47:38;;;;;;;8.07;7.27;;;17.50;99.90;;;;;;5050767;28;20196;-74
2021/07/28 04:50:04;;;;;;;7.30;6.60;;;17.20;99.90;;;;;;5048975;28;20362;-77
2021/07/28 04:52:30;;;;;;;8.97;8.07;;;17.50;99.90;;;;;;5048034;28;20187;-75
2021/07/28 04:54:55;;;;;;;9.87;8.53;;;17.50;99.90;;;;;;5045332;28;20885;-75
2021/07/28 04:57:21;;;;;;;9.37;7.90;;;17.70;99.90;;;;;;5048340;28;20191;-77
2021/07/28 04:59:46;;;;;;;8.83;7.90;;;17.50;99.90;;;;;;5048519;28;20182;-75
2021/07/28 05:02:12;;;;;;;8.60;7.70;;;17.50;99.90;;;;;;5047092;28;20195;-75
2021/07/28 05:04:38;;;;;;;8.70;7.80;;;17.80;99.90;;;;;;5046833;28;20551;-73
2021/07/28 05:07:04;;;;;;;7.47;6.47;;;17.40;99.90;;;;;;5045638;28;20192;-77
2021/07/28 05:09:29;;;;;;;10.30;7.33;;;17.50;99.90;;;;;;5045791;28;20560;-76
2021/07/28 05:11:55;;;;;;;7.70;6.90;;;17.60;99.90;;;;;;5046463;28;20180;-76
2021/07/28 05:14:20;;;;;;;8.10;7.10;;;17.40;99.90;;;;;;5049641;28;20572;-76
2021/07/28 05:16:46;;;;;;;8.40;7.60;;;17.80;99.90;;;;;;5047914;28;20216;-75
2021/07/28 05:19:11;;;;;;;8.57;7.77;;;17.30;99.90;;;;;;5045173;28;20187;-77
2021/07/28 05:21:37;;;;;;;8.27;7.40;;;17.30;99.90;;;;;;5046853;28;20223;-75
2021/07/28 05:24:03;;;;;;;8.10;7.40;;;17.60;99.90;;;;;;5045546;28;20610;-75
2021/07/28 05:26:28;;;;;;;8.40;7.70;;;17.60;99.90;;;;;;5048634;28;20619;-75
2021/07/28 05:28:54;;;;;;;7.93;7.23;;;17.40;99.90;;;;;;5036447;28;20466;-74
2021/07/28 05:31:20;;;;;;;8.63;7.70;;;17.60;99.90;;;;;;5038971;28;20494;-76
2021/07/28 05:33:45;;;;;;;7.73;7.03;;;17.50;99.90;;;;;;5046314;28;20189;-75
2021/07/28 05:36:11;;;;;;;8.20;7.50;;;17.70;99.90;;;;;;5048042;28;20187;-78
2021/07/28 05:38:37;;;;;;;7.83;7.17;;;17.50;99.90;;;;;;5049806;28;20660;-75
2021/07/28 05:41:03;;;;;;;8.60;7.80;;;17.70;99.90;;;;;;5047386;28;20189;-74
2021/07/28 05:43:29;;;;;;;10.23;7.30;;;17.50;99.90;;;;;;5045040;28;20184;-74
2021/07/28 05:45:54;;;;;;;7.83;7.13;;;17.50;99.90;;;;;;5041524;28;20430;-73
2021/07/28 05:48:20;;;;;;;8.33;7.53;;;17.70;99.90;;;;;;5048816;28;20270;-74
2021/07/28 05:50:46;;;;;;;8.23;7.50;;;17.50;99.90;;;;;;5048883;28;20220;-74
2021/07/28 05:53:11;;;;;;;7.20;6.50;;;17.70;99.90;;;;;;5043113;28;20750;-77
2021/07/28 05:55:37;;;;;;;10.50;8.43;;;17.80;99.90;;;;;;5037634;28;20179;-74
2021/07/28 05:58:02;;;;;;;9.07;8.20;;;17.80;99.90;;;;;;5031651;28;20742;-74
2021/07/28 06:00:28;;;;;;;7.43;6.23;;;17.80;99.90;;;;;;5043822;28;20611;-74
2021/07/28 06:02:53;;;;;;;9.97;8.50;;;18.10;99.90;;;;;;5041852;28;20250;-75
2021/07/28 06:05:20;;;;;;;8.37;7.47;;;17.90;99.90;;;;;;5047116;28;20216;-75
2021/07/28 06:07:45;;;;;;;8.40;7.60;;;18.00;99.90;;;;;;5044729;28;20194;-74
2021/07/28 06:10:12;;;;;;;7.67;7.00;;;18.20;99.90;;;;;;5049464;28;20494;-76
2021/07/28 06:12:37;;;;;;;8.03;7.33;;;18.20;99.90;;;;;;5048883;28;20592;-73
2021/07/28 06:15:03;;;;;;;7.50;6.90;;;18.30;99.90;;;;;;5044912;28;20438;-74
2021/07/28 06:17:29;;;;;;;7.10;6.40;;;18.40;99.90;;;;;;5046647;28;20690;-74
2021/07/28 06:19:54;;;;;;;8.57;7.10;;;18.10;99.90;;;;;;5049631;28;20527;-74
2021/07/28 06:22:20;;;;;;;7.63;6.93;;;18.10;99.90;;;;;;5049776;28;20222;-75
2021/07/28 06:24:45;;;;;;;7.80;7.10;;;18.00;99.90;;;;;;5045148;28;20716;-74
2021/07/28 06:27:11;;;;;;;7.37;6.63;;;18.30;99.90;;;;;;5047683;28;20184;-76
2021/07/28 06:29:36;;;;;;;8.30;7.50;;;18.40;99.90;;;;;;5049701;28;20230;-74
2021/07/28 06:32:02;;;;;;;7.77;6.97;;;18.20;99.90;;;;;;5046768;28;20876;-74
2021/07/28 06:34:27;;;;;;;8.47;7.50;;;18.30;99.90;;;;;;5047497;28;20200;-74
2021/07/28 06:36:53;;;;;;;8.53;7.73;;;18.00;99.90;;;;;;5045412;28;20646;-74
2021/07/28 06:39:18;;;;;;;8.87;7.97;;;17.80;99.90;;;;;;5039808;28;20187;-73
2021/07/28 06:41:44;;;;;;;11.77;7.27;;;18.10;99.90;;;;;;5042226;28;20201;-73
2021/07/28 06:44:09;;;;;;;8.63;7.73;;;17.80;99.90;;;;;;5039817;28;20178;-74
2021/07/28 06:46:35;;;;;;;8.23;7.50;;;17.50;99.90;;;;;;5046425;28;20196;-73
2021/07/28 06:49:00;;;;;;;7.33;6.60;;;17.90;99.90;;;;;;5045501;28;20199;-72
2021/07/28 06:51:28;;;;;;;7.57;6.87;;;17.70;99.90;;;;;;5047526;28;20188;-73
2021/07/28 06:53:54;;;;;;;8.57;6.87;;;17.70;99.90;;;;;;5045546;28;20248;-74
2021/07/28 06:56:19;;;;;;;8.33;7.53;;;17.50;99.90;;;;;;5045523;28;20429;-74
2021/07/28 06:58:45;;;;;;;8.37;7.57;;;17.60;99.90;;;;;;5029785;28;20563;-73
2021/07/28 07:01:10;;;;;;;9.13;8.23;;;17.50;99.90;;;;;;5034113;28;20224;-74
2021/07/28 07:03:36;;;;;;;8.73;7.50;;;17.50;99.90;;;;;;5047959;28;20179;-74
2021/07/28 07:06:02;;;;;;;7.73;6.93;;;17.50;99.90;;;;;;5046108;28;20633;-74
2021/07/28 07:08:28;;;;;;;8.50;7.60;;;17.50;99.90;;;;;;5045083;28;20192;-75
2021/07/28 07:11:02;;;;;;;9.23;8.13;;;17.40;99.90;;;;;;5044970;28;20468;-76
2021/07/28 07:13:28;;;;;;;9.23;8.07;;;17.70;99.90;;;;;;5039176;28;20186;-73
2021/07/28 07:15:53;;;;;;;8.80;7.87;;;17.60;99.90;;;;;;5040053;28;20869;-76
2021/07/28 07:18:19;;;;;;;9.60;7.90;;;17.70;99.90;;;;;;5040484;28;20547;-72
2021/07/28 07:20:44;;;;;;;8.63;7.73;;;17.80;99.90;;;;;;5044544;28;20207;-74
2021/07/28 07:23:11;;;;;;;8.57;7.80;;;17.80;99.90;;;;;;5042053;28;20650;-73
2021/07/28 07:25:37;;;;;;;8.80;7.83;;;17.90;99.90;;;;;;5042982;28;20200;-74
2021/07/28 07:28:04;;;;;;;8.43;7.53;;;17.90;99.90;;;;;;5043581;28;20805;-73
2021/07/28 07:30:29;;;;;;;7.97;7.27;;;18.10;99.90;;;;;;5046506;28;20243;-73
2021/07/28 07:35:39;;;;;;;8.53;7.50;;;18.10;99.90;;;;;;5045668;28;20255;-72
2021/07/28 07:38:04;;;;;;;9.70;7.90;;;18.30;99.90;;;;;;5045493;28;20421;-72
2021/07/28 07:40:30;;;;;;;8.67;7.77;;;18.20;99.90;;;;;;5050002;28;20841;-73
2021/07/28 07:42:55;;;;;;;7.50;6.70;;;18.30;99.90;;;;;;5047736;28;20781;-73
2021/07/28 07:45:21;;;;;;;9.07;8.13;;;18.60;99.90;;;;;;5048052;28;20200;-74
2021/07/28 07:47:47;;;;;;;9.43;8.47;;;18.50;99.90;;;;;;5045216;28;20188;-73
2021/07/28 07:50:13;;;;;;;7.87;7.07;;;18.90;99.90;;;;;;5049098;28;20878;-74
2021/07/28 07:52:38;;;;;;;8.70;7.80;;;18.50;99.90;;;;;;5036073;28;20559;-73
2021/07/28 07:55:04;;;;;;;7.70;6.90;;;18.50;99.90;;;;;;5032774;28;20432;-73
2021/07/28 07:57:30;;;;;;;7.30;6.60;;;18.40;99.90;;;;;;5042646;28;20183;-72
2021/07/28 07:59:56;;;;;;;8.73;7.90;;;18.40;99.90;;;;;;5042573;28;20430;-73
2021/07/28 08:02:21;;;;;;;9.20;7.83;;;18.20;99.90;;;;;;5046057;28;20428;-73
2021/07/28 08:04:47;;;;;;;7.40;6.70;;;18.40;99.90;;;;;;5046125;28;20206;-73
2021/07/28 08:07:12;;;;;;;8.27;7.47;;;18.20;99.90;;;;;;5032898;28;20246;-74
2021/07/28 08:09:38;;;;;;;7.93;7.20;;;18.30;99.90;;;;;;5043863;28;20220;-73
2021/07/28 08:12:04;;;;;;;9.03;7.87;;;18.20;99.90;;;;;;5049010;28;20188;-74
2021/07/28 08:14:29;;;;;;;9.17;7.97;;;18.30;99.90;;;;;;5045727;28;20187;-73
2021/07/28 08:16:55;;;;;;;9.13;8.07;;;17.80;99.90;;;;;;5047225;28;20204;-72
2021/07/28 08:19:20;;;;;;;7.57;6.87;;;18.10;99.90;;;;;;5048536;28;20201;-75
2021/07/28 08:21:47;;;;;;;7.80;6.93;;;18.00;99.90;;;;;;5049263;28;20199;-74
2021/07/28 08:24:14;;;;;;;10.70;7.77;;;17.90;99.90;;;;;;5049558;28;20196;-74
2021/07/28 08:26:39;;;;;;;9.63;7.97;;;17.90;99.90;;;;;;5050284;28;20966;-73
2021/07/28 08:29:05;;;;;;;7.30;6.60;;;17.90;99.90;;;;;;5047765;28;20427;-74
2021/07/28 08:31:30;;;;;;;9.17;7.30;;;18.10;99.90;;;;;;5046970;28;20223;-73
2021/07/28 08:33:56;;;;;;;8.30;7.43;;;18.00;99.90;;;;;;5044684;28;20176;-74
2021/07/28 08:36:21;;;;;;;9.30;7.07;;;18.10;99.90;;;;;;5044740;28;20522;-74
2021/07/28 08:38:47;;;;;;;7.67;6.97;;;18.20;99.90;;;;;;5047716;28;20200;-72
2021/07/28 08:41:15;;;;;;;7.50;6.73;;;18.10;99.90;;;;;;5048615;28;20181;-73
2021/07/28 08:43:42;;;;;;;8.00;7.27;;;18.20;99.90;;;;;;5048597;28;20637;-73
2021/07/28 08:46:08;;;;;;;7.87;7.10;;;18.70;99.90;;;;;;5042450;28;20467;-73
2021/07/28 08:48:35;;;;;;;7.37;6.67;;;19.10;99.90;;;;;;5044846;28;20426;-75
2021/07/28 08:51:04;;;;;;;7.97;6.47;;;19.30;99.90;;;;;;5046085;28;20502;-75
2021/07/28 08:53:29;;;;;;;7.70;6.57;;;19.50;99.90;;;;;;5047916;28;20663;-73
2021/07/28 08:55:57;;;;;;;6.77;5.97;;;19.60;99.90;;;;;;5046991;28;20444;-75
2021/07/28 08:58:24;;;;;;;6.70;6.10;;;20.00;99.90;;;;;;5045624;28;20190;-73
2021/07/28 09:00:51;;;;;;;7.30;6.30;;;20.20;99.90;;;;;;5043931;28;20419;-74
2021/07/28 09:03:17;;;;;;;6.30;5.70;;;20.40;99.90;;;;;;5048313;28;20427;-76
2021/07/28 09:05:44;;;;;;;6.50;5.90;;;20.70;99.90;;;;;;5047321;28;20428;-72
2021/07/28 09:08:32;;;;;;;6.47;5.87;;;20.90;99.90;;;;;;5046440;28;20189;-71
2021/07/28 09:11:04;;;;;;;5.97;5.43;;;21.10;99.90;;;;;;5044901;28;20552;-74
2021/07/28 09:13:31;;;;;;;6.07;5.47;;;21.40;99.90;;;;;;5047524;28;20857;-74
2021/07/28 09:15:58;;;;;;;5.87;5.37;;;21.70;99.90;;;;;;5046975;28;20445;-72
2021/07/28 09:18:45;;;;;;;7.30;6.67;;;21.90;99.90;;;;;;5043516;28;20432;-72
2021/07/28 09:21:19;;;;;;;5.30;4.90;;;22.10;99.90;;;;;;5044766;28;20964;-72
2021/07/28 09:23:50;;;;;;;6.30;5.03;;;22.90;99.90;;;;;;5045034;28;20481;-73
2021/07/28 09:29:16;;;;;;;5.70;5.17;;;22.90;97.50;;;;;;5046155;28;20479;-73
2021/07/28 09:31:49;;;;;;;5.90;5.40;;;23.40;95.10;;;;;;5044628;28;20481;-73
2021/07/28 09:34:18;;;;;;;5.70;5.23;;;23.20;93.40;;;;;;5047693;28;20436;-74
2021/07/28 09:36:43;;;;;;;4.70;4.30;;;23.30;95.10;;;;;;5044510;28;20457;-73
2021/07/28 09:39:09;;;;;;;4.93;4.53;;;23.80;95.90;;;;;;5043216;28;20427;-72
2021/07/28 09:41:38;;;;;;;5.10;4.60;;;23.90;92.90;;;;;;5043499;28;20188;-74
2021/07/28 09:44:04;;;;;;;5.63;5.23;;;24.40;91.40;;;;;;5046260;28;20183;-74
2021/07/28 09:46:33;;;;;;;5.50;5.00;;;24.10;90.00;;;;;;5046562;28;20492;-72
2021/07/28 09:49:02;;;;;;;5.50;4.87;;;24.50;84.60;;;;;;5043761;28;20186;-73
2021/07/28 09:51:39;;;;;;;5.30;4.80;;;24.90;85.50;;;;;;5042559;28;20795;-73
2021/07/28 09:54:07;;;;;;;5.23;4.37;;;25.00;82.90;;;;;;5045832;28;20450;-74
2021/07/28 09:56:51;;;;;;;5.60;4.90;;;25.60;79.20;;;;;;5041400;28;20939;-74
2021/07/28 09:59:17;;;;;;;6.50;5.00;;;26.40;78.10;;;;;;5044357;28;20519;-73
2021/07/28 10:01:47;;;;;;;5.70;5.10;;;27.20;70.30;;;;;;5040136;28;20440;-74
2021/07/28 10:04:14;;;;;;;5.20;4.77;;;28.10;66.10;;;;;;5038810;28;20433;-77
2021/07/28 10:06:43;;;;;;;5.67;5.20;;;28.70;58.90;;;;;;5045168;28;20455;-73
2021/07/28 10:09:16;;;;;;;5.57;5.07;;;29.00;57.40;;;;;;5023265;28;20431;-72
2021/07/28 10:11:45;;;;;;;5.03;4.63;;;29.00;56.60;;;;;;5024641;28;20434;-73
2021/07/28 10:14:14;;;;;;;5.40;4.90;;;28.60;55.00;;;;;;5030439;28;20702;-73
2021/07/28 10:16:39;;;;;;;5.13;4.73;;;28.00;55.40;;;;;;5045763;28;20821;-74
2021/07/28 10:19:05;;;;;;;5.40;5.00;;;27.60;57.50;;;;;;5039607;28;20437;-76
2021/07/28 10:21:33;;;;;;;4.60;4.20;;;27.30;58.60;;;;;;5040631;28;20190;-75
2021/07/28 10:23:59;;;;;;;4.83;4.30;;;27.00;58.40;;;;;;5044509;28;20444;-72
2021/07/28 10:26:25;;;;;;;4.50;4.13;;;26.80;59.60;;;;;;5047421;28;20775;-72
2021/07/28 10:28:51;;;;;;;4.97;4.57;;;26.60;59.80;;;;;;5037009;28;20460;-76
2021/07/28 10:31:18;;;;;;;4.43;4.03;;;26.40;61.00;;;;;;5039853;28;21005;-73
2021/07/28 10:33:55;;;;;;;5.10;4.60;;;26.10;62.10;;;;;;5043220;28;20193;-73
2021/07/28 10:36:42;;;;;;;5.90;4.67;;;26.00;60.90;;;;;;5041075;28;20439;-74
2021/07/28 10:39:08;;;;;;;4.93;4.53;;;26.00;60.40;;;;;;5042062;28;20447;-73
2021/07/28 10:41:41;;;;;;;5.10;4.60;;;26.10;60.80;;;;;;5043691;28;20849;-73
2021/07/28 10:44:07;;;;;;;6.37;4.90;;;26.00;61.50;;;;;;5027551;28;20186;-74
2021/07/28 10:46:52;;;;;;;5.20;4.80;;;25.80;61.70;;;;;;5040999;28;20454;-73
2021/07/28 10:49:35;;;;;;;5.43;4.70;;;25.80;61.60;;;;;;5043485;28;20479;-76
2021/07/28 10:52:05;;;;;;;4.23;3.93;;;26.90;61.20;;;;;;5033995;28;20844;-73
2021/07/28 10:54:47;;;;;;;5.10;4.70;;;28.00;59.70;;;;;;5022521;28;20461;-76
2021/07/28 10:57:34;;;;;;;3.97;3.60;;;28.90;56.80;;;;;;5041008;28;20450;-76
2021/07/28 11:00:13;;;;;;;4.83;4.43;;;29.30;52.40;;;;;;5044808;28;20439;-75
2021/07/28 11:02:57;;;;;;;6.13;5.63;;;29.00;52.10;;;;;;5044965;28;20847;-74
2021/07/28 11:05:28;;;;;;;4.90;4.50;;;28.60;52.50;;;;;;5043248;28;20974;-75
2021/07/28 11:08:05;;;;;;;5.33;4.93;;;28.10;52.50;;;;;;5042480;28;20978;-74
2021/07/28 11:10:55;;;;;;;5.10;4.67;;;27.60;53.70;;;;;;5048927;28;20480;-74
2021/07/28 11:13:23;;;;;;;4.80;4.40;;;27.60;55.10;;;;;;5041149;28;21356;-75
2021/07/28 11:16:00;;;;;;;5.83;4.40;;;28.00;55.40;;;;;;5047289;28;20426;-75
2021/07/28 11:18:43;;;;;;;4.20;3.90;;;29.20;55.70;;;;;;5045914;28;20482;-73
2021/07/28 11:21:13;;;;;;;5.20;4.70;;;31.50;51.90;;;;;;5050080;28;20432;-72
2021/07/28 11:23:41;;;;;;;4.60;4.30;;;33.40;46.10;;;;;;5050596;28;20490;-71
2021/07/28 11:26:19;;;;;;;4.77;4.37;;;34.30;41.70;;;;;;5046165;28;20931;-74
2021/07/28 11:28:46;;;;;;;4.87;4.47;;;35.10;40.30;;;;;;5035237;28;20438;-73
2021/07/28 11:31:12;;;;;;;4.40;4.00;;;36.10;39.70;;;;;;5041571;28;20491;-75
2021/07/28 11:33:39;;;;;;;4.77;4.37;;;36.80;36.70;;;;;;5044385;28;20448;-71
2021/07/28 11:36:05;;;;;;;4.20;3.90;;;37.60;34.40;;;;;;5045100;28;20448;-73
2021/07/28 11:38:34;;;;;;;4.93;4.57;;;38.60;33.00;;;;;;5034289;28;20998;-73
2021/07/28 11:41:01;;;;;;;5.60;4.30;;;39.40;32.60;;;;;;5025540;28;20434;-71
2021/07/28 11:43:41;;;;;;;4.20;3.90;;;40.10;30.00;;;;;;5039683;28;20950;-72
2021/07/28 11:46:15;;;;;;;4.30;3.90;;;40.90;28.90;;;;;;5044489;28;20421;-72
2021/07/28 11:48:46;;;;;;;3.87;3.50;;;41.50;28.10;;;;;;5047196;28;20486;-74
2021/07/28 11:51:31;;;;;;;4.67;4.27;;;41.50;28.80;;;;;;5045543;28;20542;-72
2021/07/28 11:54:08;;;;;;;4.23;3.93;;;41.70;27.80;;;;;;5045619;28;20811;-72
2021/07/28 11:56:34;;;;;;;4.37;4.07;;;41.80;26.20;;;;;;5046979;28;20531;-71
2021/07/28 11:59:00;;;;;;;3.90;3.60;;;42.00;26.80;;;;;;5050026;28;20951;-73
2021/07/28 12:01:28;;;;;;;4.00;3.70;;;41.70;25.90;;;;;;5049677;28;20504;-74
2021/07/28 12:03:58;;;;;;;4.57;4.27;;;41.60;26.40;;;;;;5044793;28;20287;-70
2021/07/28 12:06:39;;;;;;;4.60;4.20;;;42.00;27.90;;;;;;5044703;28;20834;-70
2021/07/28 12:09:14;;;;;;;4.10;3.80;;;41.40;26.20;;;;;;5046809;28;20459;-71
2021/07/28 12:11:54;;;;;;;4.50;4.20;;;40.80;26.70;;;;;;5048787;28;20446;-72
2021/07/28 12:14:38;;;;;;;4.27;3.97;;;39.40;28.10;;;;;;5048668;28;20998;-72
2021/07/28 12:17:17;;;;;;;3.93;3.60;;;39.30;29.20;;;;;;5044617;28;20440;-73
2021/07/28 12:20:04;;;;;;;4.03;3.73;;;39.90;28.40;;;;;;5043996;28;20449;-73
2021/07/28 12:22:41;;;;;;;3.70;3.43;;;40.60;27.20;;;;;;5044391;28;20445;-73
2021/07/28 12:25:24;;;;;;;4.57;4.17;;;40.80;26.20;;;;;;5048191;28;20494;-71
2021/07/28 12:27:54;;;;;;;4.50;4.20;;;40.30;27.50;;;;;;5048274;28;21049;-73
2021/07/28 12:30:21;;;;;;;4.60;4.20;;;39.00;28.60;;;;;;5044431;28;20487;-71
2021/07/28 12:33:00;;;;;;;4.77;4.37;;;38.70;29.70;;;;;;5045953;28;20436;-71
2021/07/28 12:35:32;;;;;;;4.60;4.20;;;38.80;29.00;;;;;;5048368;28;20855;-71
2021/07/28 12:38:05;;;;;;;4.20;3.90;;;39.20;28.90;;;;;;5047754;28;20467;-71
2021/07/28 12:40:30;;;;;;;4.30;3.90;;;39.20;28.60;;;;;;5045804;28;20432;-70
2021/07/28 12:42:56;;;;;;;4.67;4.37;;;38.80;29.20;;;;;;5044289;28;20487;-72
2021/07/28 12:45:23;;;;;;;5.00;4.60;;;38.70;29.10;;;;;;5044416;28;20181;-72
2021/07/28 12:47:49;;;;;;;4.07;3.77;;;38.90;28.90;;;;;;5044527;28;20183;-71
2021/07/28 12:50:15;;;;;;;4.37;4.00;;;39.10;29.10;;;;;;5048186;28;20867;-73
2021/07/28 12:52:43;;;;;;;4.10;3.80;;;39.80;29.30;;;;;;5048603;28;20186;-72
2021/07/28 12:55:12;;;;;;;4.00;3.70;;;40.30;27.10;;;;;;5045258;28;20429;-72
2021/07/28 12:57:37;;;;;;;3.97;3.67;;;40.80;27.00;;;;;;5045384;28;20527;-72